CheckWX is a tool to help pilots better visualize weather data.  It is not intended as a substitute for an official pre-flight weather briefing.

16:50:25 UTC

EGPF TAF
Glasgow International Airport
Glasgow, United Kingdom
TAF EGPF 171100Z 1712/1812 11009KT 9999 FEW020 TEMPO 1712/1812 6000 SHRA BKN014 PROB30 TEMPO 1714/1805 2000 +SHRA BKN009CB

Oct-17@
12:00 UTC

Oct-17 @ 12:00 UTC

Oct-18@
12:00 UTC

Oct-18 @ 12:00 UTC

TAF EGPF 171100Z 1712/1812 11009KT 9999 FEW020
Wind
  • 110° at 9 KTS
Cloud Levels
  • Few at 2,000' AGL

Oct-17@
12:00 UTC

Oct-17 @ 12:00 UTC

Oct-18@
12:00 UTC

Oct-18 @ 12:00 UTC

TEMPO 1712/1812 6000 SHRA BKN014

Temporary

Temporary Changes expected for less than half the time period

Conditions
Rain
Cloud Levels
  • Broken at 1,400' AGL

Oct-17@
14:00 UTC

Oct-17 @ 14:00 UTC

Oct-18@
05:00 UTC

Oct-18 @ 05:00 UTC

PROB30 TEMPO 1714/1805 2000 +SHRA BKN009CB

Temporary - 30% Likelihood

Temporary - 30% Likelihood during this time.

Conditions
Heavy Rain
Cloud Levels
  • Broken at 900' AGL